Time;durP1;ratioP1;P1;durP2;ratioP2;P2;SDS_P1;SDS_P2;PMS_P1;PMS_P2;Temp;Humidity;BMP_temperature;BMP_pressure;BME280_temperature;BME280_humidity;BME280_pressure;Samples;Min_cycle;Max_cycle;Signal;HPM_P1;HPM_P2
2023/09/17 00:02:15;;;;;;;12.63;11.43;;;;;;;17.52;100.00;95454.59;4944391;28;20113;-84
2023/09/17 00:04:40;;;;;;;10.65;9.85;;;;;;;17.45;100.00;95456.38;4963726;28;20069;-83
2023/09/17 00:07:06;;;;;;;12.88;11.70;;;;;;;17.50;100.00;95461.84;4944570;28;20102;-84
2023/09/17 00:09:32;;;;;;;14.35;13.07;;;;;;;17.59;100.00;95451.00;4946060;28;20027;-84
2023/09/17 00:11:57;;;;;;;14.32;12.98;;;;;;;17.43;100.00;95440.88;4944853;28;20469;-84
2023/09/17 00:14:23;;;;;;;13.57;12.50;;;;;;;17.32;100.00;95465.84;4963265;28;20101;-83
2023/09/17 00:16:48;;;;;;;14.98;12.73;;;;;;;17.29;100.00;95468.88;4945691;28;20094;-84
2023/09/17 00:19:14;;;;;;;13.82;12.73;;;;;;;17.38;100.00;95467.66;4928643;28;20029;-83
2023/09/17 00:21:39;;;;;;;15.18;13.88;;;;;;;17.35;100.00;95468.06;4926837;29;20054;-83
2023/09/17 00:24:06;;;;;;;16.27;14.82;;;;;;;17.42;100.00;95472.50;4956041;28;20105;-82
2023/09/17 00:26:31;;;;;;;15.45;14.18;;;;;;;17.41;100.00;95469.06;4963409;28;20027;-84
2023/09/17 00:28:57;;;;;;;15.50;13.90;;;;;;;17.41;100.00;95469.06;4961780;28;20030;-85
2023/09/17 00:31:22;;;;;;;13.65;12.18;;;;;;;17.44;100.00;95466.06;4962818;28;20122;-85
2023/09/17 00:33:48;;;;;;;12.13;11.10;;;;;;;17.44;100.00;95460.00;4944634;28;20846;-82
2023/09/17 00:36:14;;;;;;;12.55;10.90;;;;;;;17.49;100.00;95445.31;4945114;28;20113;-86
2023/09/17 00:38:39;;;;;;;11.43;10.43;;;;;;;17.39;100.00;95437.84;4929988;28;20393;-85
2023/09/17 00:41:04;;;;;;;11.77;10.07;;;;;;;17.41;100.00;95440.25;4955515;28;20554;-85
2023/09/17 00:43:30;;;;;;;12.15;11.00;;;;;;;17.36;100.00;95433.03;4965325;28;20471;-85
2023/09/17 00:45:56;;;;;;;10.63;9.63;;;;;;;17.36;100.00;95433.03;4943827;28;20057;-85
2023/09/17 00:48:21;;;;;;;11.30;10.48;;;;;;;17.33;100.00;95433.44;4945610;28;20109;-86
2023/09/17 00:50:47;;;;;;;11.73;10.77;;;;;;;17.35;100.00;95430.59;4944114;28;20030;-85
2023/09/17 00:53:13;;;;;;;12.10;11.15;;;;;;;17.35;100.00;95426.16;4962987;28;20502;-85
2023/09/17 00:55:39;;;;;;;11.73;10.65;;;;;;;17.40;100.00;95431.59;4944951;28;20689;-85
2023/09/17 00:58:06;;;;;;;12.48;11.05;;;;;;;17.37;100.00;95423.31;4961954;28;20031;-83
2023/09/17 01:00:35;;;;;;;11.88;10.65;;;;;;;17.26;100.00;95429.19;4945498;28;20488;-86
2023/09/17 01:03:00;;;;;;;12.98;11.73;;;;;;;17.19;100.00;95434.41;4943968;28;20445;-83
2023/09/17 01:05:36;;;;;;;13.88;12.48;;;;;;;17.25;100.00;95432.78;4945694;28;20046;-86
2023/09/17 01:08:05;;;;;;;13.43;12.43;;;;;;;17.24;100.00;95428.59;4928778;28;20841;-87
2023/09/17 01:10:32;;;;;;;;;;;;;;;17.21;100.00;95437.63;4946098;28;20035;-88
2023/09/17 01:12:57;;;;;;;13.35;12.35;;;;;;;17.27;100.00;95433.41;4944827;28;19926;-85
2023/09/17 01:15:23;;;;;;;14.52;13.25;;;;;;;17.16;100.00;95428.75;4961555;28;20073;-84
2023/09/17 01:17:49;;;;;;;15.50;13.52;;;;;;;17.29;100.00;95421.72;4958623;28;20038;-85
2023/09/17 01:20:28;;;;;;;16.30;14.63;;;;;;;17.28;100.00;95408.81;4951501;28;20018;-86
2023/09/17 01:22:55;;;;;;;;;;;;;;;17.32;100.00;95410.84;4963187;28;20046;-85
2023/09/17 01:25:57;;;;;;;18.67;17.00;;;;;;;17.31;100.00;95398.75;4944259;28;19953;-84
2023/09/17 01:28:22;;;;;;;17.75;16.00;;;;;;;17.29;100.00;95395.56;4895421;28;20038;-86
2023/09/17 01:30:48;;;;;;;19.15;17.10;;;;;;;17.33;100.00;95407.25;4945219;28;20051;-85
2023/09/17 01:33:14;;;;;;;19.15;17.15;;;;;;;17.25;100.00;95417.91;4927519;28;20033;-87
2023/09/17 01:35:55;;;;;;;19.92;17.83;;;;;;;17.25;100.00;95415.28;4929777;28;20042;-86
2023/09/17 01:38:21;;;;;;;19.90;17.88;;;;;;;17.16;100.00;95415.66;4931219;28;20018;-85
2023/09/17 01:40:48;;;;;;;17.70;16.20;;;;;;;17.12;100.00;95436.19;4971324;28;20042;-84
2023/09/17 01:43:20;;;;;;;19.00;17.02;;;;;;;17.07;100.00;95440.44;4944695;28;20069;-87
2023/09/17 01:45:46;;;;;;;17.30;15.82;;;;;;;17.04;100.00;95436.41;4944311;28;20042;-84
2023/09/17 01:48:13;;;;;;;23.13;17.73;;;;;;;17.10;100.00;95446.06;4944241;28;20039;-83
2023/09/17 01:50:38;;;;;;;19.90;18.02;;;;;;;17.12;100.00;95446.66;4943512;28;20031;-83
2023/09/17 01:53:04;;;;;;;16.77;15.02;;;;;;;17.07;100.00;95446.47;4948279;28;20489;-83
2023/09/17 01:55:31;;;;;;;18.75;16.90;;;;;;;17.14;100.00;95438.63;4948137;28;20023;-87
2023/09/17 01:57:56;;;;;;;20.00;16.88;;;;;;;17.21;100.00;95431.59;4948407;28;20034;-86
2023/09/17 02:00:21;;;;;;;29.02;14.43;;;;;;;17.20;100.00;95437.84;4932010;28;20027;-87
2023/09/17 02:02:52;;;;;;;16.27;14.60;;;;;;;17.21;100.00;95429.75;4939827;28;20041;-84
2023/09/17 02:05:20;;;;;;;18.13;13.40;;;;;;;17.26;100.00;95434.41;4953255;28;20027;-84
2023/09/17 02:07:45;;;;;;;14.25;12.73;;;;;;;17.21;100.00;95431.59;4947073;28;20459;-85
2023/09/17 02:10:11;;;;;;;13.10;11.90;;;;;;;17.21;100.00;95440.25;4932494;28;20496;-87
2023/09/17 02:12:36;;;;;;;12.45;11.50;;;;;;;17.25;100.00;95424.94;4947191;28;20026;-87
2023/09/17 02:15:03;;;;;;;13.23;11.60;;;;;;;17.22;100.00;95428.78;4932230;28;20407;-86
2023/09/17 02:17:28;;;;;;;12.25;11.13;;;;;;;17.24;100.00;95431.97;4960791;28;20526;-87
2023/09/17 02:19:54;;;;;;;14.10;12.15;;;;;;;17.21;100.00;95435.00;4947959;28;20051;-85
2023/09/17 02:22:19;;;;;;;12.35;11.25;;;;;;;17.30;100.00;95430.41;4965438;28;20039;-81
2023/09/17 02:24:46;;;;;;;13.85;11.63;;;;;;;17.27;100.00;95418.50;4946906;28;20018;-81
2023/09/17 02:27:13;;;;;;;12.15;10.95;;;;;;;17.33;100.00;95414.28;4965292;28;20027;-81
2023/09/17 02:29:39;;;;;;;12.50;11.45;;;;;;;17.33;100.00;95417.72;4962628;28;20042;-84
2023/09/17 02:32:05;;;;;;;12.48;11.43;;;;;;;17.40;100.00;95415.88;4931186;28;20073;-84
2023/09/17 02:34:30;;;;;;;12.68;11.52;;;;;;;17.47;100.00;95412.47;4945940;28;20430;-85
2023/09/17 02:36:55;;;;;;;13.43;12.05;;;;;;;17.50;100.00;95423.34;4965206;28;20011;-85
2023/09/17 02:39:21;;;;;;;14.52;11.43;;;;;;;17.45;100.00;95419.72;4964541;28;20027;-84
2023/09/17 02:41:47;;;;;;;13.68;12.07;;;;;;;17.46;100.00;95421.34;4946732;28;20023;-83
2023/09/17 02:44:13;;;;;;;12.48;11.48;;;;;;;17.52;100.00;95410.88;4965004;28;20047;-82
2023/09/17 02:46:39;;;;;;;13.50;12.35;;;;;;;17.48;100.00;95422.75;4929153;28;20085;-83
2023/09/17 02:49:05;;;;;;;12.80;11.50;;;;;;;17.63;100.00;95412.09;4964728;28;20255;-83
2023/09/17 02:51:30;;;;;;;13.05;12.02;;;;;;;17.52;100.00;95416.09;4930327;28;20546;-82
2023/09/17 02:53:56;;;;;;;15.15;12.90;;;;;;;17.33;100.00;95438.66;4931690;28;20022;-83
2023/09/17 02:56:21;;;;;;;14.23;13.18;;;;;;;17.15;100.00;95461.16;4946595;28;20113;-85
2023/09/17 02:58:47;;;;;;;15.63;13.65;;;;;;;17.26;100.00;95457.97;4964623;28;20023;-83
2023/09/17 03:01:18;;;;;;;15.77;14.32;;;;;;;17.25;100.00;95446.69;4963629;28;20941;-83
2023/09/17 03:03:50;;;;;;;16.42;14.60;;;;;;;17.20;100.00;95459.59;4944831;28;20720;-83
2023/09/17 03:06:16;;;;;;;14.30;12.95;;;;;;;17.31;100.00;95445.91;4947666;28;20066;-86
2023/09/17 03:08:42;;;;;;;14.35;12.90;;;;;;;17.36;100.00;95440.88;4945951;28;20097;-85
2023/09/17 03:11:13;;;;;;;15.13;13.40;;;;;;;17.30;100.00;95423.34;4964718;28;20039;-84
2023/09/17 03:13:44;;;;;;;17.27;14.77;;;;;;;17.18;100.00;95445.06;4930060;28;20046;-83
2023/09/17 03:16:12;;;;;;;16.65;14.88;;;;;;;17.04;100.00;95465.19;4946019;28;20398;-84
2023/09/17 03:18:38;;;;;;;17.63;15.77;;;;;;;16.94;100.00;95488.31;4947623;28;20042;-82
2023/09/17 03:21:06;;;;;;;16.38;14.98;;;;;;;16.99;100.00;95498.97;4945431;28;20652;-81
2023/09/17 03:23:32;;;;;;;18.13;16.65;;;;;;;17.05;100.00;95494.78;4946941;28;20567;-84
2023/09/17 03:26:00;;;;;;;17.38;15.60;;;;;;;17.13;100.00;95490.19;4945405;28;20093;-83
2023/09/17 03:28:27;;;;;;;18.27;15.02;;;;;;;17.18;100.00;95484.34;4962741;28;20022;-82
2023/09/17 03:30:52;;;;;;;19.52;16.02;;;;;;;17.18;100.00;95481.72;4929686;28;20041;-83
2023/09/17 03:33:18;;;;;;;18.40;15.82;;;;;;;17.26;100.00;95474.50;4963845;28;20042;-82
2023/09/17 03:35:43;;;;;;;15.98;14.35;;;;;;;17.26;100.00;95460.59;4946567;28;20452;-82
2023/09/17 03:38:09;;;;;;;15.65;14.13;;;;;;;17.13;100.00;95474.47;4945882;28;20126;-86
2023/09/17 03:40:34;;;;;;;15.32;13.98;;;;;;;17.15;100.00;95467.22;4964513;28;20066;-86
2023/09/17 03:43:00;;;;;;;15.82;14.43;;;;;;;17.22;100.00;95472.47;4945184;28;20035;-86
2023/09/17 03:45:25;;;;;;;17.52;15.02;;;;;;;17.25;100.00;95467.63;4977643;28;20033;-86
2023/09/17 03:47:51;;;;;;;14.70;13.25;;;;;;;17.30;100.00;95456.59;4945199;28;20027;-84
2023/09/17 03:50:16;;;;;;;14.98;13.63;;;;;;;17.38;100.00;95440.66;4930401;28;20132;-82
2023/09/17 03:52:45;;;;;;;17.60;15.95;;;;;;;17.39;100.00;95464.06;4929701;28;20419;-83
2023/09/17 03:55:11;;;;;;;18.25;16.65;;;;;;;17.32;100.00;95481.56;4946039;28;20030;-84
2023/09/17 03:57:38;;;;;;;19.00;16.98;;;;;;;17.33;100.00;95498.09;4946049;28;20046;-79
2023/09/17 04:00:07;;;;;;;16.77;14.88;;;;;;;17.33;100.00;95513.78;4945069;28;20031;-81
2023/09/17 04:02:35;;;;;;;16.83;15.32;;;;;;;17.36;100.00;95516.00;4946605;28;20041;-82
2023/09/17 04:05:07;;;;;;;17.38;15.80;;;;;;;17.40;100.00;95510.16;4962808;28;20048;-82
2023/09/17 04:07:32;;;;;;;16.15;14.60;;;;;;;17.41;100.00;95516.22;4946415;28;20109;-83
2023/09/17 04:09:58;;;;;;;15.80;14.45;;;;;;;17.45;100.00;95509.59;4961438;28;20046;-81
2023/09/17 04:12:23;;;;;;;18.70;16.95;;;;;;;17.32;100.00;95526.06;4945042;28;20472;-83
2023/09/17 04:14:49;;;;;;;17.80;16.33;;;;;;;17.32;100.00;95536.56;4963291;28;20031;-82
2023/09/17 04:17:14;;;;;;;17.42;15.68;;;;;;;17.35;100.00;95549.25;4944638;28;20022;-82
2023/09/17 04:19:40;;;;;;;17.27;15.63;;;;;;;17.38;100.00;95559.31;4945942;28;20030;-82
2023/09/17 04:22:05;;;;;;;16.05;14.40;;;;;;;17.43;100.00;95550.06;4944060;28;20034;-82
2023/09/17 04:24:31;;;;;;;16.90;15.15;;;;;;;17.51;100.00;95531.53;4945656;28;20133;-81
2023/09/17 04:26:57;;;;;;;16.63;15.32;;;;;;;17.47;100.00;95527.69;4960253;28;20077;-82
2023/09/17 04:29:22;;;;;;;16.10;14.68;;;;;;;17.53;100.00;95519.06;4930068;28;20878;-82
2023/09/17 04:31:48;;;;;;;15.60;14.07;;;;;;;17.44;100.00;95520.25;4962269;28;20105;-83
2023/09/17 04:34:14;;;;;;;15.15;14.00;;;;;;;17.43;100.00;95518.66;4945219;28;20041;-83
2023/09/17 04:36:39;;;;;;;19.42;17.63;;;;;;;17.32;100.00;95546.22;4929709;28;20015;-84
2023/09/17 04:39:05;;;;;;;17.80;16.23;;;;;;;17.34;100.00;95555.47;4944403;28;20106;-83
2023/09/17 04:41:30;;;;;;;17.13;15.77;;;;;;;17.42;100.00;95566.78;4944497;28;20126;-83
2023/09/17 04:43:56;;;;;;;16.88;15.25;;;;;;;17.41;100.00;95558.13;4943439;28;20420;-82
2023/09/17 04:46:22;;;;;;;16.80;15.40;;;;;;;17.36;100.00;95543.00;4945588;28;20031;-82
2023/09/17 04:48:47;;;;;;;16.92;15.13;;;;;;;17.36;100.00;95543.00;4961365;28;20158;-83
2023/09/17 04:51:16;;;;;;;15.55;14.27;;;;;;;17.49;100.00;95544.03;4929247;28;20549;-82
2023/09/17 04:53:42;;;;;;;16.33;13.75;;;;;;;17.51;100.00;95524.50;4945038;28;20022;-83
2023/09/17 04:56:08;;;;;;;15.35;13.70;;;;;;;17.58;100.00;95516.69;4943537;28;20027;-83
2023/09/17 04:58:33;;;;;;;16.58;15.10;;;;;;;17.59;100.00;95523.53;4962036;28;20061;-83
2023/09/17 05:00:59;;;;;;;16.42;15.18;;;;;;;17.55;100.00;95538.00;4927537;28;20178;-82
2023/09/17 05:03:24;;;;;;;16.65;15.15;;;;;;;17.45;100.00;95548.06;4929752;28;20412;-83
2023/09/17 05:05:50;;;;;;;16.83;15.23;;;;;;;17.50;100.00;95549.06;4943280;28;20042;-83
2023/09/17 05:08:18;;;;;;;16.83;15.18;;;;;;;17.47;100.00;95548.66;4945617;28;20459;-83
2023/09/17 05:10:44;;;;;;;16.13;14.70;;;;;;;17.57;100.00;95543.88;4944152;28;20117;-83
2023/09/17 05:13:09;;;;;;;15.02;13.27;;;;;;;17.70;100.00;95533.41;4927631;28;20117;-83
2023/09/17 05:15:36;;;;;;;14.38;13.15;;;;;;;17.66;100.00;95533.00;4958798;28;20027;-82
2023/09/17 05:18:08;;;;;;;15.95;14.63;;;;;;;17.73;100.00;95527.78;4943439;28;20031;-81
2023/09/17 05:20:35;;;;;;;14.88;13.55;;;;;;;17.85;100.00;95524.34;4946333;28;20038;-82
2023/09/17 05:23:00;;;;;;;20.25;14.18;;;;;;;17.81;100.00;95511.88;4943413;28;20030;-82
2023/09/17 05:25:26;;;;;;;15.85;12.50;;;;;;;17.88;100.00;95504.81;4961816;28;20143;-82
2023/09/17 05:27:51;;;;;;;14.88;11.90;;;;;;;17.89;100.00;95501.16;4945472;28;20038;-82
2023/09/17 05:30:17;;;;;;;20.08;12.30;;;;;;;17.90;100.00;95489.69;4957345;28;20158;-83
2023/09/17 05:32:43;;;;;;;12.65;11.45;;;;;;;17.97;100.00;95487.06;4946949;28;20027;-80
2023/09/17 05:35:09;;;;;;;13.23;11.85;;;;;;;17.92;100.00;95479.00;4945415;28;20746;-80
2023/09/17 05:37:35;;;;;;;14.23;11.00;;;;;;;17.96;100.00;95464.47;4961758;28;20046;-81
2023/09/17 05:40:00;;;;;;;13.18;11.77;;;;;;;18.13;100.00;95456.00;4952516;28;20518;-81
2023/09/17 05:42:26;;;;;;;13.55;12.32;;;;;;;18.20;100.00;95451.53;4962455;28;20737;-80
2023/09/17 05:44:52;;;;;;;11.25;10.15;;;;;;;18.27;100.00;95448.88;4938206;28;20517;-81
2023/09/17 05:47:17;;;;;;;13.93;12.18;;;;;;;18.28;100.00;95424.28;4962215;28;20452;-81
2023/09/17 05:49:43;;;;;;;11.90;10.88;;;;;;;18.31;100.00;95432.53;4961319;28;20074;-82
2023/09/17 05:52:08;;;;;;;14.57;12.07;;;;;;;18.30;100.00;95433.53;4946403;28;20046;-81
2023/09/17 05:54:34;;;;;;;13.02;11.73;;;;;;;18.22;100.00;95423.28;4928829;28;20027;-81
2023/09/17 05:56:59;;;;;;;13.32;12.23;;;;;;;18.25;100.00;95424.69;4959947;28;20420;-81
2023/09/17 05:59:25;;;;;;;15.15;13.63;;;;;;;18.29;100.00;95420.66;4962422;28;20073;-81
2023/09/17 06:01:50;;;;;;;16.77;14.90;;;;;;;18.27;100.00;95418.22;4942695;28;20536;-81
2023/09/17 06:04:16;;;;;;;16.15;14.65;;;;;;;18.34;100.00;95413.75;4928983;28;20019;-81
2023/09/17 06:06:41;;;;;;;15.52;13.95;;;;;;;18.43;100.00;95424.81;4943490;28;20027;-80
2023/09/17 06:09:07;;;;;;;19.95;15.25;;;;;;;18.37;100.00;95423.84;4961421;28;20046;-80
2023/09/17 06:11:32;;;;;;;17.35;15.48;;;;;;;18.48;100.00;95424.22;4927724;28;20046;-81
2023/09/17 06:13:58;;;;;;;17.17;15.43;;;;;;;18.56;100.00;95426.66;4943154;28;20014;-80
2023/09/17 06:16:23;;;;;;;18.35;15.35;;;;;;;18.60;100.00;95440.94;4960127;28;20027;-80
2023/09/17 06:18:48;;;;;;;17.42;15.82;;;;;;;18.58;100.00;95435.91;4960294;28;20503;-80
2023/09/17 06:21:14;;;;;;;15.32;13.75;;;;;;;18.64;100.00;95429.84;4945744;28;20416;-80
2023/09/17 06:23:39;;;;;;;15.63;14.25;;;;;;;18.64;100.00;95415.91;4927082;28;20860;-80
2023/09/17 06:26:08;;;;;;;17.60;15.50;;;;;;;18.71;100.00;95417.50;4961700;28;20109;-79
2023/09/17 06:28:34;;;;;;;17.55;16.05;;;;;;;18.78;100.00;95431.38;4928130;28;20096;-79
2023/09/17 06:31:01;;;;;;;19.92;17.88;;;;;;;18.63;100.00;95445.78;4954967;28;20030;-80
2023/09/17 06:33:27;;;;;;;24.08;21.70;;;;;;;18.63;100.00;95435.28;4961965;28;20054;-80
2023/09/17 06:35:53;;;;;;;26.17;23.38;;;;;;;18.77;100.00;95428.97;4942246;28;20031;-80
2023/09/17 06:38:18;;;;;;;27.83;22.52;;;;;;;18.71;100.00;95425.38;4953589;28;20548;-80
2023/09/17 06:40:43;;;;;;;26.65;24.05;;;;;;;18.74;100.00;95418.88;4958937;28;20042;-80
2023/09/17 06:43:09;;;;;;;30.77;25.80;;;;;;;18.94;100.00;95411.72;4964676;28;20671;-80
2023/09/17 06:45:34;;;;;;;32.25;28.67;;;;;;;19.15;100.00;95403.50;4963823;28;20058;-78
2023/09/17 06:48:00;;;;;;;27.42;24.52;;;;;;;19.04;100.00;95398.91;4947199;28;20161;-79
2023/09/17 06:50:25;;;;;;;28.88;25.85;;;;;;;19.13;100.00;95388.97;4947662;28;20473;-79
2023/09/17 06:52:50;;;;;;;30.17;27.08;;;;;;;19.24;100.00;95389.09;4963642;28;20019;-80
2023/09/17 06:55:16;;;;;;;27.40;24.45;;;;;;;19.09;100.00;95385.16;4947595;28;20113;-81
2023/09/17 06:57:41;;;;;;;31.25;28.02;;;;;;;19.30;100.00;95390.03;4945174;28;20085;-81
2023/09/17 07:00:07;;;;;;;30.27;26.48;;;;;;;19.33;100.00;95381.75;4961155;28;20031;-80
2023/09/17 07:02:33;;;;;;;26.25;23.58;;;;;;;19.26;100.00;95376.56;4950717;28;20109;-80
2023/09/17 07:05:01;;;;;;;28.20;25.00;;;;;;;19.39;100.00;95376.44;4952602;28;20038;-80
2023/09/17 07:07:26;;;;;;;28.88;25.95;;;;;;;19.67;100.00;95365.53;4951680;28;20114;-80
2023/09/17 07:09:52;;;;;;;26.00;23.60;;;;;;;19.68;100.00;95363.72;4956404;28;20015;-79
2023/09/17 07:12:17;;;;;;;25.65;23.38;;;;;;;19.64;100.00;95352.81;4959826;28;20050;-81
2023/09/17 07:14:43;;;;;;;27.10;24.23;;;;;;;19.62;100.00;95359.31;4935712;28;20121;-79
2023/09/17 07:17:09;;;;;;;27.52;24.67;;;;;;;19.75;100.00;95364.44;4963504;28;20109;-79
2023/09/17 07:19:34;;;;;;;25.80;23.10;;;;;;;19.74;100.00;95365.47;4949652;28;20053;-78
2023/09/17 07:22:00;;;;;;;24.67;22.13;;;;;;;19.81;100.00;95366.22;4948250;28;20034;-80
2023/09/17 07:24:25;;;;;;;26.27;23.75;;;;;;;20.06;100.00;95347.75;4945880;28;20035;-80
2023/09/17 07:26:51;;;;;;;25.27;23.02;;;;;;;20.44;100.00;95346.50;4941380;28;20034;-79
2023/09/17 07:29:16;;;;;;;23.65;21.25;;;;;;;20.78;100.00;95338.94;4948479;28;20022;-79
2023/09/17 07:31:41;;;;;;;25.25;22.63;;;;;;;21.12;100.00;95337.50;4963444;28;20029;-81
2023/09/17 07:34:07;;;;;;;24.67;22.13;;;;;;;21.17;100.00;95341.03;4951036;28;20034;-79
2023/09/17 07:36:32;;;;;;;22.58;18.60;;;;;;;20.62;100.00;95345.66;4940656;28;20026;-79
2023/09/17 07:38:58;;;;;;;20.42;18.20;;;;;;;20.35;100.00;95353.09;4931198;28;20049;-83
2023/09/17 07:41:23;;;;;;;19.35;17.40;;;;;;;20.27;100.00;95357.84;4945589;28;20647;-79
2023/09/17 07:43:52;;;;;;;20.27;18.23;;;;;;;20.03;100.00;95359.50;4951169;28;20026;-77
2023/09/17 07:46:17;;;;;;;19.65;17.80;;;;;;;19.85;100.00;95372.63;4962485;28;20034;-81
2023/09/17 07:48:43;;;;;;;20.30;17.85;;;;;;;19.88;100.00;95374.81;4946048;28;20321;-79
2023/09/17 07:51:09;;;;;;;22.42;18.52;;;;;;;19.76;100.00;95376.56;4946890;28;20065;-79
2023/09/17 07:53:34;;;;;;;23.75;20.73;;;;;;;20.10;100.00;95368.09;4962063;28;20117;-80
2023/09/17 07:56:00;;;;;;;20.50;18.25;;;;;;;19.77;100.00;95372.91;4948318;28;20054;-81
2023/09/17 07:58:25;;;;;;;18.88;17.17;;;;;;;19.74;100.00;95375.97;4944432;28;20035;-80
2023/09/17 08:00:52;;;;;;;20.33;18.17;;;;;;;19.93;100.00;95385.50;4963609;28;20071;-81
2023/09/17 08:03:18;;;;;;;19.77;18.00;;;;;;;20.07;100.00;95373.81;4962073;28;20034;-79
2023/09/17 08:05:45;;;;;;;19.00;17.17;;;;;;;20.03;100.00;95371.84;4946136;28;20768;-80
2023/09/17 08:08:11;;;;;;;19.98;17.83;;;;;;;19.93;100.00;95375.78;4929890;28;20129;-82
2023/09/17 08:10:36;;;;;;;21.33;16.27;;;;;;;20.18;100.00;95362.56;4952502;28;20473;-79
2023/09/17 08:13:02;;;;;;;16.95;15.25;;;;;;;21.25;100.00;95355.72;4963731;28;20023;-82
2023/09/17 08:15:29;;;;;;;16.27;14.60;;;;;;;21.72;100.00;95346.00;4961748;28;20035;-80
2023/09/17 08:17:55;;;;;;;16.42;14.65;;;;;;;22.05;100.00;95339.16;4963003;28;20038;-79
2023/09/17 08:20:21;;;;;;;16.30;14.57;;;;;;;21.62;100.00;95337.88;4961450;28;20038;-80
2023/09/17 08:22:46;;;;;;;18.70;16.85;;;;;;;21.24;100.00;95343.56;4963429;28;20030;-81
2023/09/17 08:25:12;;;;;;;17.80;16.20;;;;;;;21.12;100.00;95348.03;4962413;28;20155;-81
2023/09/17 08:27:39;;;;;;;19.90;18.02;;;;;;;21.17;100.00;95348.94;4962621;28;20023;-81
2023/09/17 08:30:07;;;;;;;17.90;16.20;;;;;;;21.14;100.00;95341.50;4945914;28;20037;-78
2023/09/17 08:32:33;;;;;;;22.57;17.97;;;;;;;21.38;100.00;95343.13;4943880;28;20118;-80
2023/09/17 08:34:58;;;;;;;19.98;18.02;;;;;;;21.35;100.00;95346.22;4962811;28;20035;-80
2023/09/17 08:37:24;;;;;;;21.08;19.08;;;;;;;21.35;100.00;95346.22;4945971;28;20077;-79
2023/09/17 08:39:50;;;;;;;19.17;16.88;;;;;;;20.88;100.00;95349.75;4957245;28;20034;-80
2023/09/17 08:42:16;;;;;;;21.67;19.48;;;;;;;21.03;100.00;95350.94;4944606;28;20081;-80
2023/09/17 08:44:42;;;;;;;20.92;19.10;;;;;;;21.56;100.00;95350.13;4945052;28;20023;-81
2023/09/17 08:47:07;;;;;;;21.85;19.52;;;;;;;21.96;100.00;95340.50;4944513;28;20489;-80
2023/09/17 08:49:33;;;;;;;23.27;20.83;;;;;;;21.81;100.00;95342.00;4943580;28;20050;-80
2023/09/17 08:52:02;;;;;;;19.52;17.83;;;;;;;21.85;100.00;95333.41;4929690;28;20101;-83
2023/09/17 08:54:38;;;;;;;20.45;17.45;;;;;;;21.52;100.00;95339.25;4943411;28;20504;-79
2023/09/17 08:57:05;;;;;;;20.08;18.02;;;;;;;21.45;100.00;95332.47;4945725;28;20037;-81
2023/09/17 08:59:33;;;;;;;19.80;17.80;;;;;;;21.62;100.00;95332.59;4943246;28;20057;-80
2023/09/17 09:02:05;;;;;;;20.20;18.08;;;;;;;21.54;100.00;95339.81;4944125;28;20054;-79
2023/09/17 09:04:34;;;;;;;20.65;18.45;;;;;;;21.77;100.00;95338.22;4944919;28;20039;-80
2023/09/17 09:07:00;;;;;;;;;;;;;;;21.42;100.00;95339.00;4945312;28;20031;-80
2023/09/17 09:09:25;;;;;;;24.40;21.27;;;;;;;21.60;100.00;95338.13;4945567;28;20372;-79
2023/09/17 09:11:51;;;;;;;24.67;22.40;;;;;;;22.45;100.00;95339.16;4943508;28;20292;-80
2023/09/17 09:14:16;;;;;;;17.65;15.93;;;;;;;22.45;100.00;95331.22;4945521;28;20058;-80
2023/09/17 09:16:44;;;;;;;22.75;20.23;;;;;;;22.48;100.00;95330.75;4960493;28;20026;-84
2023/09/17 09:19:09;;;;;;;21.17;19.35;;;;;;;22.04;100.00;95331.44;4945046;28;20504;-81
2023/09/17 09:21:36;;;;;;;22.05;19.70;;;;;;;22.52;100.00;95320.53;4927995;28;20034;-80
2023/09/17 09:24:02;;;;;;;23.67;20.63;;;;;;;22.86;100.00;95329.38;4928577;28;20031;-81
2023/09/17 09:26:38;;;;;;;22.17;20.10;;;;;;;22.31;100.00;95327.28;4941711;28;20433;-80
2023/09/17 09:29:05;;;;;;;23.25;19.92;;;;;;;22.12;100.00;95325.03;4934796;28;20034;-79
2023/09/17 09:31:31;;;;;;;22.20;20.30;;;;;;;22.77;100.00;95314.94;4944492;28;20841;-80
2023/09/17 09:33:59;;;;;;;20.08;18.23;;;;;;;22.10;100.00;95319.16;4943616;28;20033;-79
2023/09/17 09:36:27;;;;;;;19.85;18.02;;;;;;;22.21;100.00;95329.69;4945355;28;20518;-79
2023/09/17 09:38:54;;;;;;;18.75;17.20;;;;;;;21.97;100.00;95315.75;4944579;28;20559;-77
2023/09/17 09:41:20;;;;;;;20.65;18.35;;;;;;;22.19;100.00;95326.47;4940017;28;20034;-80
2023/09/17 09:43:45;;;;;;;19.35;17.38;;;;;;;22.37;100.00;95321.06;4951324;28;22100;-82
2023/09/17 09:46:11;;;;;;;20.33;18.25;;;;;;;22.56;100.00;95316.38;4947440;28;20031;-82
2023/09/17 09:48:38;;;;;;;21.13;19.13;;;;;;;22.90;100.00;95312.00;4954108;28;20054;-82
2023/09/17 09:51:03;;;;;;;19.98;17.88;;;;;;;22.73;100.00;95313.81;4927585;29;20606;-81
2023/09/17 09:53:29;;;;;;;20.13;17.85;;;;;;;22.77;100.00;95304.38;4929017;28;20023;-82
2023/09/17 09:55:55;;;;;;;20.25;18.08;;;;;;;22.46;100.00;95317.00;4955467;28;20452;-83
2023/09/17 09:58:21;;;;;;;19.95;17.90;;;;;;;22.71;100.00;95300.03;4941268;28;20023;-82
2023/09/17 10:00:46;;;;;;;20.00;18.08;;;;;;;23.42;100.00;95302.84;4940048;28;20050;-88
2023/09/17 10:03:13;;;;;;;18.13;16.05;;;;;;;23.57;100.00;95302.25;4955258;28;20066;-81
2023/09/17 10:05:44;;;;;;;16.65;14.95;;;;;;;23.56;98.64;95303.31;4946990;28;20130;-87
2023/09/17 10:08:11;;;;;;;16.70;15.10;;;;;;;23.79;98.69;95297.03;4945804;28;20098;-87
2023/09/17 10:10:37;;;;;;;16.55;15.10;;;;;;;23.32;98.99;95301.84;4930288;28;20046;-82
2023/09/17 10:13:05;;;;;;;18.35;16.67;;;;;;;23.70;99.06;95298.47;4944330;28;20030;-81
2023/09/17 10:15:31;;;;;;;17.98;16.30;;;;;;;23.39;100.00;95303.28;4955239;28;20093;-83
2023/09/17 10:17:57;;;;;;;16.45;14.75;;;;;;;22.97;99.49;95299.44;4948311;28;20035;-81
2023/09/17 10:20:23;;;;;;;20.23;17.33;;;;;;;23.79;99.82;95295.16;4941180;28;20958;-83
2023/09/17 10:22:50;;;;;;;18.90;16.67;;;;;;;24.04;97.40;95292.88;4933586;28;20034;-82
2023/09/17 10:25:17;;;;;;;18.13;16.02;;;;;;;24.10;97.77;95294.53;4946552;28;20155;-81
2023/09/17 10:27:43;;;;;;;19.65;17.70;;;;;;;24.08;96.24;95287.88;4948592;28;20023;-81
2023/09/17 10:30:11;;;;;;;18.65;16.50;;;;;;;24.03;96.09;95282.50;4945881;28;20015;-80
2023/09/17 10:32:37;;;;;;;18.48;15.45;;;;;;;23.37;96.59;95278.16;4952548;28;20023;-80
2023/09/17 10:35:05;;;;;;;18.90;16.60;;;;;;;23.62;97.35;95283.81;4935679;28;20420;-82
2023/09/17 10:37:32;;;;;;;18.55;16.95;;;;;;;23.63;98.63;95278.28;4933846;28;20035;-82
2023/09/17 10:39:58;;;;;;;18.48;16.60;;;;;;;23.83;96.38;95276.94;4965592;28;20030;-82
2023/09/17 10:42:25;;;;;;;22.25;17.23;;;;;;;24.19;96.71;95280.88;4946140;28;20081;-84
2023/09/17 10:44:55;;;;;;;18.98;17.00;;;;;;;23.65;95.28;95275.41;4931067;28;20031;-84
2023/09/17 10:47:21;;;;;;;19.98;18.10;;;;;;;24.07;96.92;95275.69;4950957;28;20023;-80
2023/09/17 10:49:47;;;;;;;19.17;17.27;;;;;;;23.52;97.20;95270.47;4947909;28;20525;-80
2023/09/17 10:52:13;;;;;;;20.33;18.30;;;;;;;23.95;96.20;95265.19;4927567;28;20034;-85
2023/09/17 10:54:38;;;;;;;19.10;17.20;;;;;;;23.53;96.56;95257.00;4941873;28;20035;-82
2023/09/17 10:57:11;;;;;;;19.38;16.55;;;;;;;23.60;97.20;95267.38;4947288;28;20030;-80
2023/09/17 10:59:37;;;;;;;19.48;17.58;;;;;;;23.85;97.36;95245.78;4943402;28;20034;-80
2023/09/17 11:02:03;;;;;;;18.67;16.65;;;;;;;24.19;95.11;95249.09;4962697;28;20041;-81
2023/09/17 11:04:31;;;;;;;18.77;16.83;;;;;;;23.90;95.34;95249.28;4928120;28;20041;-81
2023/09/17 11:06:58;;;;;;;18.85;17.00;;;;;;;23.82;94.50;95239.13;4946161;28;20062;-82
2023/09/17 11:09:24;;;;;;;24.33;18.35;;;;;;;24.01;95.31;95239.63;4934383;28;20197;-80